createdAt,value
2023-01-03T00:01:30.147Z,16.00
2023-01-03T00:03:57.884Z,22.20
2023-01-03T00:06:36.149Z,19.42
2023-01-03T00:09:05.781Z,19.90
2023-01-03T00:11:52.566Z,20.27
2023-01-03T00:14:23.390Z,18.27
2023-01-03T00:16:55.857Z,19.85
2023-01-03T00:19:24.307Z,23.08
2023-01-03T00:21:51.036Z,20.60
2023-01-03T00:24:17.543Z,19.02
2023-01-03T00:26:46.836Z,25.55
2023-01-03T00:29:14.177Z,19.38
2023-01-03T00:31:41.391Z,24.80
2023-01-03T00:34:08.786Z,21.58
2023-01-03T00:36:38.611Z,20.70
2023-01-03T00:39:05.790Z,21.77
2023-01-03T00:41:34.805Z,22.70
2023-01-03T00:44:01.584Z,20.90
2023-01-03T00:46:30.430Z,21.08
2023-01-03T00:48:56.971Z,20.98
2023-01-03T00:51:28.030Z,21.42
2023-01-03T00:53:56.745Z,20.42
2023-01-03T00:56:29.178Z,22.70
2023-01-03T00:58:56.104Z,20.67
2023-01-03T01:01:24.106Z,22.05
2023-01-03T01:03:59.897Z,18.00
2023-01-03T01:06:29.861Z,20.45
2023-01-03T01:08:58.598Z,18.75
2023-01-03T01:11:26.549Z,20.98
2023-01-03T01:13:54.212Z,18.73
2023-01-03T01:16:30.720Z,20.23
2023-01-03T01:18:59.810Z,19.23
2023-01-03T01:21:31.352Z,22.35
2023-01-03T01:24:00.002Z,21.73
2023-01-03T01:26:27.123Z,22.10
2023-01-03T01:28:54.569Z,16.92
2023-01-03T01:31:25.282Z,23.55
2023-01-03T01:33:58.691Z,19.70
2023-01-03T01:36:29.337Z,18.92
2023-01-03T01:38:58.699Z,20.63
2023-01-03T01:41:44.892Z,18.88
2023-01-03T01:44:48.658Z,17.05
2023-01-03T01:47:33.581Z,17.33
2023-01-03T01:50:12.763Z,17.83
2023-01-03T01:52:45.498Z,19.40
2023-01-03T01:55:15.779Z,19.42
2023-01-03T01:57:43.762Z,19.48
2023-01-03T02:00:11.367Z,19.50
2023-01-03T02:02:38.106Z,20.95
2023-01-03T02:05:07.453Z,17.55
2023-01-03T02:07:34.705Z,22.13
2023-01-03T02:10:04.500Z,18.73
2023-01-03T02:13:03.409Z,20.55
2023-01-03T02:15:59.105Z,18.63
2023-01-03T02:18:47.990Z,22.42
2023-01-03T02:21:36.153Z,19.52
2023-01-03T02:24:28.485Z,18.13
2023-01-03T02:27:20.895Z,16.05
2023-01-03T02:30:28.461Z,17.90
2023-01-03T02:33:10.845Z,17.25
2023-01-03T02:35:49.414Z,17.50
2023-01-03T02:39:12.823Z,18.20
2023-01-03T02:41:45.049Z,17.25
2023-01-03T02:44:14.458Z,15.73
2023-01-03T02:46:52.080Z,20.03
2023-01-03T02:49:36.720Z,20.00
2023-01-03T02:52:10.653Z,17.60
2023-01-03T02:54:42.322Z,17.13
2023-01-03T02:57:16.116Z,21.10
2023-01-03T02:59:47.804Z,17.80
2023-01-03T03:02:15.817Z,16.83
2023-01-03T03:04:47.545Z,18.25
2023-01-03T03:07:23.224Z,18.42
2023-01-03T03:10:08.516Z,17.38
2023-01-03T03:13:11.085Z,17.40
2023-01-03T03:15:57.514Z,18.23
2023-01-03T03:18:54.084Z,23.85
2023-01-03T03:21:39.861Z,22.67
2023-01-03T03:24:38.458Z,22.33
2023-01-03T03:27:28.205Z,20.27
2023-01-03T03:29:57.874Z,13.85
2023-01-03T03:32:26.826Z,16.37
2023-01-03T03:34:56.459Z,17.52
2023-01-03T03:37:27.068Z,15.68
2023-01-03T03:40:13.746Z,21.63
2023-01-03T03:43:10.289Z,18.13
2023-01-03T03:45:43.880Z,18.02
2023-01-03T03:48:27.562Z,16.23
2023-01-03T03:51:08.533Z,16.65
2023-01-03T03:53:37.551Z,16.92
2023-01-03T03:56:09.428Z,18.17
2023-01-03T03:58:46.136Z,14.52
2023-01-03T04:01:17.116Z,15.75
2023-01-03T04:03:44.995Z,15.20
2023-01-03T04:06:20.855Z,20.52
2023-01-03T04:08:52.208Z,16.08
2023-01-03T04:11:19.040Z,21.08
2023-01-03T04:13:45.622Z,13.73
2023-01-03T04:16:17.098Z,17.90
2023-01-03T04:18:43.684Z,16.02
2023-01-03T04:21:13.205Z,20.42
2023-01-03T04:23:43.634Z,16.77
2023-01-03T04:26:10.280Z,14.13
2023-01-03T04:28:36.869Z,22.20
2023-01-03T04:31:05.625Z,15.05
2023-01-03T04:33:32.179Z,19.35
2023-01-03T04:35:58.723Z,18.90
2023-01-03T04:38:25.228Z,21.02
2023-01-03T04:40:51.891Z,15.07
2023-01-03T04:43:36.722Z,13.93
2023-01-03T04:46:03.417Z,14.75
2023-01-03T04:48:30.130Z,15.70
2023-01-03T04:50:59.468Z,15.80
2023-01-03T04:53:30.840Z,22.80
2023-01-03T04:55:57.662Z,13.30
2023-01-03T04:58:24.234Z,15.17
2023-01-03T05:00:51.553Z,16.30
2023-01-03T05:03:23.950Z,13.50
2023-01-03T05:05:59.201Z,14.43
2023-01-03T05:08:28.041Z,17.97
2023-01-03T05:10:54.745Z,17.07
2023-01-03T05:13:22.160Z,15.75
2023-01-03T05:15:48.724Z,13.15
2023-01-03T05:18:15.295Z,16.25
2023-01-03T05:21:00.458Z,14.85
2023-01-03T05:23:46.080Z,16.67
2023-01-03T05:26:18.694Z,15.10
2023-01-03T05:28:49.994Z,14.95
2023-01-03T05:31:16.649Z,15.20
2023-01-03T05:33:43.365Z,19.17
2023-01-03T05:36:10.553Z,16.40
2023-01-03T05:38:38.242Z,13.88
2023-01-03T05:41:05.578Z,14.90
2023-01-03T05:43:33.384Z,12.25
2023-01-03T05:46:00.093Z,15.43
2023-01-03T05:48:27.141Z,21.17
2023-01-03T05:50:57.671Z,17.17
2023-01-03T05:53:25.013Z,15.52
2023-01-03T05:55:54.053Z,18.63
2023-01-03T05:58:20.642Z,13.77
2023-01-03T06:00:47.291Z,15.85
2023-01-03T06:03:13.906Z,18.08
2023-01-03T06:05:44.708Z,15.77
2023-01-03T06:08:16.228Z,15.65
2023-01-03T06:10:42.780Z,19.88
2023-01-03T06:13:09.521Z,15.65
2023-01-03T06:15:36.033Z,21.02
2023-01-03T06:18:02.823Z,16.70
2023-01-03T06:20:29.908Z,16.70
2023-01-03T06:22:56.669Z,22.83
2023-01-03T06:25:23.244Z,20.35
2023-01-03T06:27:52.296Z,17.45
2023-01-03T06:30:18.949Z,19.33
2023-01-03T06:32:45.831Z,19.50
2023-01-03T06:35:12.866Z,21.52
2023-01-03T06:37:39.476Z,18.35
2023-01-03T06:40:06.851Z,17.77
2023-01-03T06:42:42.900Z,17.13
2023-01-03T06:45:33.281Z,13.65
2023-01-03T06:48:29.209Z,16.13
2023-01-03T06:51:14.481Z,17.92
2023-01-03T06:53:42.954Z,17.15
2023-01-03T06:56:12.541Z,15.18
2023-01-03T06:58:41.598Z,18.10
2023-01-03T07:01:08.268Z,18.05
2023-01-03T07:03:34.998Z,12.63
2023-01-03T07:06:01.631Z,18.02
2023-01-03T07:08:28.201Z,13.55
2023-01-03T07:10:55.343Z,18.30
2023-01-03T07:13:40.511Z,12.82
2023-01-03T07:16:07.580Z,16.27
2023-01-03T07:18:38.707Z,17.08
2023-01-03T07:21:07.220Z,16.10
2023-01-03T07:23:33.857Z,16.33
2023-01-03T07:26:00.481Z,14.90
2023-01-03T07:28:27.219Z,12.40
2023-01-03T07:31:01.320Z,15.50
2023-01-03T07:33:28.189Z,15.23
2023-01-03T07:36:11.517Z,14.85
2023-01-03T07:38:41.216Z,15.18
2023-01-03T07:41:08.261Z,15.60
2023-01-03T07:43:38.777Z,13.57
2023-01-03T07:46:06.553Z,11.80
2023-01-03T07:48:39.228Z,15.18
2023-01-03T07:51:07.514Z,12.75
2023-01-03T07:53:35.599Z,17.65
2023-01-03T07:56:15.790Z,15.30
2023-01-03T07:58:46.839Z,16.23
2023-01-03T08:01:19.495Z,13.82
2023-01-03T08:03:46.604Z,16.58
2023-01-03T08:06:15.585Z,14.82
2023-01-03T08:08:44.718Z,13.30
2023-01-03T08:11:32.007Z,13.55
2023-01-03T08:14:01.228Z,13.30
2023-01-03T08:16:27.849Z,15.60
2023-01-03T08:18:57.256Z,18.40
2023-01-03T08:21:28.886Z,14.27
2023-01-03T08:23:55.485Z,16.42
2023-01-03T08:26:24.484Z,16.40
2023-01-03T08:28:53.599Z,13.15
2023-01-03T08:31:23.206Z,17.52
2023-01-03T08:33:51.816Z,17.33
2023-01-03T08:36:19.477Z,14.60
2023-01-03T08:38:52.739Z,14.75
2023-01-03T08:41:22.772Z,14.95
2023-01-03T08:43:49.580Z,17.05
2023-01-03T08:46:20.488Z,16.42
2023-01-03T08:48:48.284Z,19.42
2023-01-03T08:51:17.542Z,19.23
2023-01-03T08:53:44.309Z,17.13
2023-01-03T08:56:11.145Z,17.45
2023-01-03T08:58:37.913Z,19.27
2023-01-03T09:01:07.043Z,17.60
2023-01-03T09:03:33.851Z,20.83
2023-01-03T09:06:05.437Z,19.60
2023-01-03T09:08:34.205Z,18.05
2023-01-03T09:11:08.193Z,23.00
2023-01-03T09:13:37.993Z,18.27
2023-01-03T09:16:16.557Z,18.75
2023-01-03T09:18:43.720Z,20.02
2023-01-03T09:21:12.855Z,19.98
2023-01-03T09:23:41.732Z,19.75
2023-01-03T09:26:08.594Z,23.90
2023-01-03T09:28:37.717Z,18.23
2023-01-03T09:31:04.743Z,19.90
2023-01-03T09:33:31.394Z,19.55
2023-01-03T09:35:58.034Z,20.50
2023-01-03T09:38:24.628Z,21.77
2023-01-03T09:41:09.740Z,24.48
2023-01-03T09:43:41.662Z,20.95
2023-01-03T09:46:21.726Z,16.20
2023-01-03T09:48:49.257Z,16.48
2023-01-03T09:51:38.348Z,16.83
2023-01-03T09:54:28.611Z,17.90
2023-01-03T09:57:14.047Z,20.00
2023-01-03T09:59:59.020Z,17.50
2023-01-03T10:03:29.345Z,25.73
2023-01-03T10:06:12.878Z,23.58
2023-01-03T10:08:54.241Z,18.38
2023-01-03T10:11:48.292Z,18.20
2023-01-03T10:14:47.468Z,20.88
2023-01-03T10:17:33.560Z,17.13
2023-01-03T10:20:08.060Z,17.17
2023-01-03T10:22:37.320Z,18.77
2023-01-03T10:25:22.028Z,14.13
2023-01-03T10:27:57.092Z,13.88
2023-01-03T10:30:49.431Z,15.77
2023-01-03T10:33:55.896Z,16.42
2023-01-03T10:36:22.630Z,14.13
2023-01-03T10:39:03.329Z,17.55
2023-01-03T10:41:48.235Z,13.55
2023-01-03T10:44:30.209Z,15.98
2023-01-03T10:47:08.412Z,17.08
2023-01-03T10:49:35.185Z,14.98
2023-01-03T10:52:19.596Z,14.00
2023-01-03T10:54:51.573Z,15.48
2023-01-03T10:57:43.790Z,17.80
2023-01-03T11:00:38.067Z,14.52
2023-01-03T11:03:14.647Z,19.73
2023-01-03T11:05:43.942Z,15.93
2023-01-03T11:08:19.899Z,12.13
2023-01-03T11:10:57.426Z,14.95
2023-01-03T11:13:36.661Z,16.40
2023-01-03T11:16:12.331Z,14.45
2023-01-03T11:18:39.031Z,16.60
2023-01-03T11:21:32.877Z,10.05
2023-01-03T11:24:18.162Z,12.77
2023-01-03T11:26:47.671Z,9.55
2023-01-03T11:29:33.090Z,8.65
2023-01-03T11:32:25.858Z,12.95
2023-01-03T11:35:24.849Z,11.50
2023-01-03T11:38:09.905Z,19.95
2023-01-03T11:40:46.822Z,13.02
2023-01-03T11:43:19.374Z,15.27
2023-01-03T11:46:02.261Z,13.77
2023-01-03T11:48:48.271Z,17.13
2023-01-03T11:51:25.600Z,14.20
2023-01-03T11:54:05.340Z,13.73
2023-01-03T11:56:39.590Z,12.32
2023-01-03T11:59:36.751Z,13.10
2023-01-03T12:02:23.811Z,14.60
2023-01-03T12:05:06.788Z,21.85
2023-01-03T12:07:53.994Z,13.93
2023-01-03T12:10:39.272Z,16.35
2023-01-03T12:13:33.467Z,14.88
2023-01-03T12:16:03.326Z,13.18
2023-01-03T12:18:42.016Z,16.90
2023-01-03T12:21:31.686Z,19.38
2023-01-03T12:24:11.990Z,15.15
2023-01-03T12:26:43.635Z,14.82
2023-01-03T12:29:20.732Z,17.08
2023-01-03T12:31:53.812Z,11.77
2023-01-03T12:34:43.594Z,16.08
2023-01-03T12:37:24.215Z,12.10
2023-01-03T12:40:01.607Z,12.52
2023-01-03T12:42:42.727Z,15.20
2023-01-03T12:45:12.071Z,11.88
2023-01-03T12:47:45.906Z,9.43
2023-01-03T12:50:27.204Z,8.52
2023-01-03T12:53:03.776Z,6.82
2023-01-03T12:55:51.201Z,7.05
2023-01-03T12:58:26.600Z,8.55
2023-01-03T13:01:00.769Z,7.60
2023-01-03T13:03:54.578Z,5.78
2023-01-03T13:06:31.478Z,9.95
2023-01-03T13:09:07.717Z,9.57
2023-01-03T13:11:48.596Z,7.70
2023-01-03T13:14:21.771Z,7.93
2023-01-03T13:16:50.416Z,10.60
2023-01-03T13:19:20.156Z,12.10
2023-01-03T13:21:52.918Z,6.40
2023-01-03T13:24:44.520Z,5.78
2023-01-03T13:27:17.120Z,5.43
2023-01-03T13:29:49.690Z,8.07
2023-01-03T13:32:22.401Z,10.98
2023-01-03T13:35:15.248Z,7.30
2023-01-03T13:37:51.230Z,8.30
2023-01-03T13:40:59.777Z,6.72
2023-01-03T13:43:26.836Z,7.68
2023-01-03T13:45:56.292Z,5.68
2023-01-03T13:48:33.153Z,6.70
2023-01-03T13:51:16.205Z,7.35
2023-01-03T13:54:04.847Z,6.05
2023-01-03T13:56:35.190Z,7.13
2023-01-03T13:59:07.777Z,6.15
2023-01-03T14:01:59.449Z,6.32
2023-01-03T14:04:35.075Z,5.72
2023-01-03T14:07:07.559Z,7.75
2023-01-03T14:10:02.357Z,8.40
2023-01-03T14:13:08.495Z,6.82
2023-01-03T14:15:35.444Z,5.68
2023-01-03T14:18:25.857Z,5.88
2023-01-03T14:20:55.316Z,10.30
2023-01-03T14:23:58.500Z,9.10
2023-01-03T14:26:19.664Z,12.40
2023-01-03T14:28:53.059Z,7.38
2023-01-03T14:31:28.057Z,8.10
2023-01-03T14:33:57.749Z,7.00
2023-01-03T14:36:24.599Z,11.70
2023-01-03T14:38:56.936Z,7.68
2023-01-03T14:41:26.513Z,7.40
2023-01-03T14:44:02.107Z,3.63
2023-01-03T14:46:30.675Z,10.27
2023-01-03T14:49:03.162Z,15.15
2023-01-03T14:51:32.608Z,12.20
2023-01-03T14:54:00.545Z,8.30
2023-01-03T14:56:28.794Z,5.60
2023-01-03T14:58:58.460Z,6.22
2023-01-03T15:01:25.266Z,8.32
2023-01-03T15:03:53.268Z,7.88
2023-01-03T15:06:22.920Z,8.70
2023-01-03T15:08:55.089Z,7.55
2023-01-03T15:11:33.644Z,8.63
2023-01-03T15:14:05.024Z,8.25
2023-01-03T15:16:34.742Z,7.93
2023-01-03T15:19:17.377Z,9.70
2023-01-03T15:21:47.311Z,7.10
2023-01-03T15:24:23.670Z,8.50
2023-01-03T15:26:52.581Z,6.82
2023-01-03T15:29:24.323Z,7.28
2023-01-03T15:31:53.774Z,8.68
2023-01-03T15:34:29.689Z,7.80
2023-01-03T15:37:12.313Z,7.72
2023-01-03T15:39:50.889Z,7.55
2023-01-03T15:42:45.193Z,11.00
2023-01-03T15:45:23.908Z,8.73
2023-01-03T15:47:56.420Z,9.38
2023-01-03T15:50:38.194Z,6.75
2023-01-03T15:53:04.836Z,4.63
2023-01-03T15:55:31.581Z,7.35
2023-01-03T15:57:58.713Z,8.85
2023-01-03T16:00:26.334Z,6.40
2023-01-03T16:02:53.157Z,5.35
2023-01-03T16:05:23.317Z,6.53
2023-01-03T16:07:50.927Z,11.52
2023-01-03T16:10:17.663Z,6.85
2023-01-03T16:12:44.411Z,6.65
2023-01-03T16:15:21.360Z,13.93
2023-01-03T16:17:49.278Z,8.15
2023-01-03T16:20:17.934Z,12.88
2023-01-03T16:23:00.516Z,4.90
2023-01-03T16:25:31.381Z,10.13
2023-01-03T16:27:57.981Z,10.93
2023-01-03T16:30:24.693Z,7.70
2023-01-03T16:32:51.745Z,5.90
2023-01-03T16:35:19.572Z,11.60
2023-01-03T16:37:47.411Z,11.15
2023-01-03T16:40:16.633Z,9.70
2023-01-03T16:42:43.264Z,6.72
2023-01-03T16:45:10.431Z,13.57
2023-01-03T16:47:37.676Z,9.60
2023-01-03T16:50:18.601Z,10.98
2023-01-03T16:52:52.541Z,6.35
2023-01-03T16:55:38.310Z,9.55
2023-01-03T16:58:11.730Z,9.77
2023-01-03T17:00:38.265Z,9.98
2023-01-03T17:03:07.205Z,10.32
2023-01-03T17:05:36.182Z,7.07
2023-01-03T17:08:16.158Z,12.30
2023-01-03T17:10:46.739Z,14.45
2023-01-03T17:13:35.189Z,12.23
2023-01-03T17:16:05.232Z,6.57
2023-01-03T17:18:41.102Z,9.30
2023-01-03T17:21:18.383Z,8.73
2023-01-03T17:23:45.704Z,11.75
2023-01-03T17:26:18.116Z,11.25
2023-01-03T17:28:48.007Z,9.05
2023-01-03T17:31:16.623Z,6.78
2023-01-03T17:33:46.032Z,9.07
2023-01-03T17:36:23.826Z,7.90
2023-01-03T17:38:50.558Z,12.63
2023-01-03T17:41:21.581Z,7.20
2023-01-03T17:43:48.452Z,7.30
2023-01-03T17:46:44.856Z,16.25
2023-01-03T17:49:26.096Z,9.85
2023-01-03T17:52:06.472Z,7.03
2023-01-03T17:54:39.792Z,6.57
2023-01-03T17:57:10.501Z,8.45
2023-01-03T17:59:36.982Z,9.95
2023-01-03T18:02:16.999Z,8.20
2023-01-03T18:05:14.747Z,11.43
2023-01-03T18:07:33.016Z,9.45
2023-01-03T18:10:01.770Z,6.90
2023-01-03T18:12:28.352Z,10.07
2023-01-03T18:14:54.904Z,9.65
2023-01-03T18:17:33.805Z,11.27
2023-01-03T18:20:02.957Z,11.35
2023-01-03T18:22:29.558Z,10.68
2023-01-03T18:24:59.602Z,14.98
2023-01-03T18:27:27.662Z,8.50
2023-01-03T18:29:54.244Z,6.85
2023-01-03T18:32:32.378Z,8.63
2023-01-03T18:34:59.335Z,5.43
2023-01-03T18:37:34.848Z,8.75
2023-01-03T18:40:03.673Z,7.70
2023-01-03T18:42:51.394Z,8.30
2023-01-03T18:45:17.934Z,5.05
2023-01-03T18:47:44.485Z,9.68
2023-01-03T18:50:19.200Z,8.57
2023-01-03T18:52:47.587Z,8.52
2023-01-03T18:55:18.563Z,5.90
2023-01-03T18:57:46.461Z,9.75
2023-01-03T19:00:20.104Z,5.30
2023-01-03T19:02:47.245Z,12.27
2023-01-03T19:05:14.502Z,10.55
2023-01-03T19:07:44.252Z,12.23
2023-01-03T19:10:20.473Z,9.05
2023-01-03T19:12:50.816Z,10.02
2023-01-03T19:15:29.287Z,8.73
2023-01-03T19:17:58.938Z,9.43
2023-01-03T19:20:27.275Z,11.48
2023-01-03T19:22:55.315Z,6.30
2023-01-03T19:25:30.225Z,9.88
2023-01-03T19:27:59.409Z,18.25
2023-01-03T19:30:46.569Z,11.93
2023-01-03T19:33:15.944Z,10.75
2023-01-03T19:35:43.876Z,9.32
2023-01-03T19:38:10.537Z,6.78
2023-01-03T19:40:40.118Z,8.20
2023-01-03T19:43:17.462Z,12.43
2023-01-03T19:45:44.037Z,11.27
2023-01-03T19:48:24.172Z,9.55
2023-01-03T19:50:51.578Z,10.35
2023-01-03T19:53:18.188Z,11.68
2023-01-03T19:55:47.633Z,7.40
2023-01-03T19:58:33.751Z,9.18
2023-01-03T20:01:03.188Z,8.40
2023-01-03T20:03:42.779Z,11.02
2023-01-03T20:06:15.552Z,10.88
2023-01-03T20:08:47.246Z,8.10
2023-01-03T20:11:22.142Z,7.82
2023-01-03T20:13:49.575Z,10.48
2023-01-03T20:16:16.297Z,8.25
2023-01-03T20:18:43.595Z,6.75
2023-01-03T20:21:10.125Z,7.72
2023-01-03T20:23:40.470Z,9.35
2023-01-03T20:26:13.721Z,6.95
2023-01-03T20:28:40.238Z,6.60
2023-01-03T20:31:08.272Z,7.25
2023-01-03T20:33:34.926Z,7.78
2023-01-03T20:36:14.235Z,9.70
2023-01-03T20:38:48.152Z,8.48
2023-01-03T20:41:17.324Z,6.55
2023-01-03T20:43:44.698Z,6.57
2023-01-03T20:46:17.347Z,10.40
2023-01-03T20:48:44.719Z,6.88
2023-01-03T20:51:13.687Z,6.55
2023-01-03T20:53:43.030Z,10.88
2023-01-03T20:56:16.245Z,10.98
2023-01-03T20:58:42.826Z,8.80
2023-01-03T21:01:12.389Z,10.15
2023-01-03T21:03:39.123Z,5.40
2023-01-03T21:06:21.987Z,10.32
2023-01-03T21:08:55.283Z,7.85
2023-01-03T21:11:23.031Z,7.25
2023-01-03T21:13:49.956Z,12.00
2023-01-03T21:16:42.338Z,8.20
2023-01-03T21:19:13.076Z,8.23
2023-01-03T21:21:41.424Z,10.15
2023-01-03T21:24:12.562Z,11.20
2023-01-03T21:26:39.532Z,13.27
2023-01-03T21:29:08.978Z,10.80
2023-01-03T21:31:39.928Z,4.70
2023-01-03T21:34:13.077Z,11.25
2023-01-03T21:36:41.928Z,11.77
2023-01-03T21:39:09.859Z,8.60
2023-01-03T21:41:56.899Z,6.13
2023-01-03T21:44:23.389Z,7.55
2023-01-03T21:46:52.083Z,5.43
2023-01-03T21:49:18.870Z,7.60
2023-01-03T21:51:45.412Z,8.85
2023-01-03T21:54:12.860Z,13.77
2023-01-03T21:56:45.691Z,8.25
2023-01-03T21:59:17.109Z,9.77
2023-01-03T22:02:06.332Z,11.10
2023-01-03T22:04:33.712Z,8.25
2023-01-03T22:07:01.274Z,8.23
2023-01-03T22:09:48.063Z,6.20
2023-01-03T22:12:17.721Z,9.20
2023-01-03T22:14:45.132Z,8.73
2023-01-03T22:17:11.814Z,6.55
2023-01-03T22:19:38.466Z,8.32
2023-01-03T22:22:05.117Z,7.47
2023-01-03T22:24:31.828Z,7.22
2023-01-03T22:26:58.507Z,8.07
2023-01-03T22:29:30.132Z,6.03
2023-01-03T22:31:56.845Z,8.65
2023-01-03T22:34:23.800Z,6.93
2023-01-03T22:36:50.398Z,6.57
2023-01-03T22:39:16.953Z,8.15
2023-01-03T22:41:43.483Z,10.15
2023-01-03T22:44:10.927Z,10.38
2023-01-03T22:46:42.367Z,10.40
2023-01-03T22:49:09.004Z,7.18
2023-01-03T22:51:35.570Z,10.23
2023-01-03T22:54:09.411Z,8.55
2023-01-03T22:56:35.926Z,6.63
2023-01-03T22:59:02.620Z,7.13
2023-01-03T23:01:29.523Z,6.65
2023-01-03T23:04:03.955Z,8.43
2023-01-03T23:06:32.774Z,9.30
2023-01-03T23:09:04.714Z,4.00
2023-01-03T23:11:51.111Z,4.53
2023-01-03T23:14:20.490Z,6.07
2023-01-03T23:16:48.021Z,9.05
2023-01-03T23:19:17.006Z,7.90
2023-01-03T23:21:45.566Z,4.38
2023-01-03T23:24:23.207Z,5.85
2023-01-03T23:26:53.611Z,8.63
2023-01-03T23:29:21.192Z,8.88
2023-01-03T23:31:47.742Z,6.38
2023-01-03T23:34:14.323Z,6.78
2023-01-03T23:36:43.359Z,5.93
2023-01-03T23:39:15.076Z,6.85
2023-01-03T23:41:44.410Z,7.03
2023-01-03T23:44:11.205Z,3.97
2023-01-03T23:46:38.466Z,9.98
2023-01-03T23:49:05.265Z,5.88
2023-01-03T23:51:31.824Z,6.57
2023-01-03T23:54:01.376Z,6.15
2023-01-03T23:56:27.996Z,8.43
2023-01-03T23:58:54.537Z,8.35
